createdAt,value
2022-12-29T00:00:11.676Z,8.77
2022-12-29T00:01:16.614Z,8.82
2022-12-29T00:02:19.277Z,8.80
2022-12-29T00:03:20.813Z,8.78
2022-12-29T00:04:22.195Z,8.76
2022-12-29T00:05:24.750Z,8.79
2022-12-29T00:06:27.100Z,8.79
2022-12-29T00:07:29.872Z,8.76
2022-12-29T00:08:33.901Z,8.72
2022-12-29T00:09:35.985Z,8.74
2022-12-29T00:10:40.402Z,8.72
2022-12-29T00:11:42.164Z,8.72
2022-12-29T00:12:43.640Z,8.77
2022-12-29T00:13:44.902Z,8.80
2022-12-29T00:14:46.425Z,8.83
2022-12-29T00:15:49.962Z,8.83
2022-12-29T00:16:52.475Z,8.89
2022-12-29T00:17:56.429Z,8.95
2022-12-29T00:19:00.920Z,8.98
2022-12-29T00:20:04.961Z,9.00
2022-12-29T00:21:06.521Z,9.04
2022-12-29T00:22:15.865Z,9.07
2022-12-29T00:23:17.332Z,9.06
2022-12-29T00:24:20.880Z,9.05
2022-12-29T00:25:29.265Z,9.09
2022-12-29T00:26:30.500Z,9.07
2022-12-29T00:27:32.430Z,9.02
2022-12-29T00:28:38.883Z,9.06
2022-12-29T00:29:42.163Z,9.07
2022-12-29T00:30:43.960Z,9.05
2022-12-29T00:31:47.024Z,9.05
2022-12-29T00:32:48.724Z,9.06
2022-12-29T00:33:50.508Z,9.05
2022-12-29T00:34:55.402Z,9.05
2022-12-29T00:36:03.851Z,9.03
2022-12-29T00:37:05.195Z,9.03
2022-12-29T00:38:12.172Z,9.01
2022-12-29T00:39:17.588Z,9.01
2022-12-29T00:40:20.716Z,9.02
2022-12-29T00:41:22.016Z,9.03
2022-12-29T00:42:23.315Z,9.05
2022-12-29T00:43:28.505Z,9.12
2022-12-29T00:44:29.823Z,9.09
2022-12-29T00:45:32.206Z,9.08
2022-12-29T00:46:34.245Z,9.07
2022-12-29T00:47:35.571Z,9.03
2022-12-29T00:48:38.115Z,9.04
2022-12-29T00:49:41.378Z,9.02
2022-12-29T00:50:45.938Z,9.01
2022-12-29T00:51:48.070Z,9.03
2022-12-29T00:52:49.441Z,9.07
2022-12-29T00:53:51.098Z,9.05
2022-12-29T00:54:54.488Z,9.03
2022-12-29T00:55:55.803Z,9.05
2022-12-29T00:56:58.993Z,9.06
2022-12-29T00:58:03.020Z,9.11
2022-12-29T00:59:06.080Z,9.12
2022-12-29T01:00:08.988Z,9.13
2022-12-29T01:01:10.860Z,9.14
2022-12-29T01:02:13.620Z,9.13
2022-12-29T01:03:16.813Z,9.16
2022-12-29T01:04:20.469Z,9.14
2022-12-29T01:05:21.969Z,9.12
2022-12-29T01:06:23.537Z,9.11
2022-12-29T01:07:24.811Z,9.14
2022-12-29T01:08:33.424Z,9.18
2022-12-29T01:09:36.195Z,9.22
2022-12-29T01:10:38.845Z,9.25
2022-12-29T01:11:41.140Z,9.24
2022-12-29T01:12:42.942Z,9.24
2022-12-29T01:13:45.200Z,9.25
2022-12-29T01:14:46.491Z,9.23
2022-12-29T01:16:07.806Z,9.24
2022-12-29T01:17:12.175Z,9.23
2022-12-29T01:18:14.749Z,9.32
2022-12-29T01:19:16.944Z,9.32
2022-12-29T01:20:19.925Z,9.29
2022-12-29T01:21:23.274Z,9.27
2022-12-29T01:22:27.242Z,9.34
2022-12-29T01:23:31.368Z,9.32
2022-12-29T01:24:32.830Z,9.29
2022-12-29T01:25:35.669Z,9.28
2022-12-29T01:26:39.188Z,9.29
2022-12-29T01:27:43.241Z,9.31
2022-12-29T01:28:45.309Z,9.34
2022-12-29T01:29:46.813Z,9.34
2022-12-29T01:30:49.316Z,9.36
2022-12-29T01:31:51.007Z,9.32
2022-12-29T01:32:55.444Z,9.30
2022-12-29T01:35:15.616Z,9.32
2022-12-29T01:36:17.929Z,9.31
2022-12-29T01:37:20.269Z,9.30
2022-12-29T01:38:23.043Z,9.29
2022-12-29T01:39:24.473Z,9.28
2022-12-29T01:40:25.827Z,9.25
2022-12-29T01:41:30.533Z,9.23
2022-12-29T01:42:31.854Z,9.21
2022-12-29T01:43:47.610Z,9.19
2022-12-29T01:44:54.637Z,9.19
2022-12-29T01:45:57.705Z,9.21
2022-12-29T01:47:00.489Z,9.21
2022-12-29T01:48:04.747Z,9.24
2022-12-29T01:49:10.141Z,9.22
2022-12-29T01:50:14.420Z,9.19
2022-12-29T01:51:16.868Z,9.17
2022-12-29T01:52:19.437Z,9.15
2022-12-29T01:53:26.177Z,9.16
2022-12-29T01:54:35.147Z,9.14
2022-12-29T01:55:41.474Z,9.14
2022-12-29T01:56:44.700Z,9.13
2022-12-29T01:57:50.332Z,9.12
2022-12-29T01:58:56.545Z,9.12
2022-12-29T02:00:01.561Z,9.13
2022-12-29T02:01:03.274Z,9.14
2022-12-29T02:02:06.349Z,9.17
2022-12-29T02:03:09.551Z,9.22
2022-12-29T02:04:13.387Z,9.27
2022-12-29T02:05:21.596Z,9.28
2022-12-29T02:06:27.047Z,9.31
2022-12-29T02:07:28.621Z,9.33
2022-12-29T02:08:31.416Z,9.31
2022-12-29T02:09:34.496Z,9.31
2022-12-29T02:10:37.058Z,9.30
2022-12-29T02:11:39.367Z,9.31
2022-12-29T02:12:41.289Z,9.31
2022-12-29T02:13:42.824Z,9.33
2022-12-29T02:14:44.701Z,9.35
2022-12-29T02:15:46.184Z,9.37
2022-12-29T02:16:53.331Z,9.38
2022-12-29T02:18:02.826Z,9.42
2022-12-29T02:19:10.339Z,9.41
2022-12-29T02:20:19.736Z,9.42
2022-12-29T02:21:29.739Z,9.42
2022-12-29T02:23:07.292Z,9.43
2022-12-29T02:24:32.340Z,9.45
2022-12-29T02:26:01.724Z,9.53
2022-12-29T02:27:25.086Z,9.48
2022-12-29T02:28:45.368Z,9.48
2022-12-29T02:30:05.720Z,9.45
2022-12-29T02:31:15.980Z,9.41
2022-12-29T02:32:26.104Z,9.36
2022-12-29T02:33:46.138Z,9.35
2022-12-29T02:34:56.786Z,9.32
2022-12-29T02:36:23.478Z,9.31
2022-12-29T02:37:43.512Z,9.31
2022-12-29T02:38:53.735Z,9.29
2022-12-29T02:40:02.614Z,9.27
2022-12-29T02:41:17.829Z,9.27
2022-12-29T02:42:38.463Z,9.26
2022-12-29T02:44:09.526Z,9.27
2022-12-29T02:45:28.023Z,9.29
2022-12-29T02:46:35.162Z,9.31
2022-12-29T02:47:38.535Z,9.36
2022-12-29T02:48:48.247Z,9.36
2022-12-29T02:49:53.685Z,9.32
2022-12-29T02:51:03.707Z,9.37
2022-12-29T02:52:11.976Z,9.35
2022-12-29T02:53:16.153Z,9.33
2022-12-29T02:54:23.305Z,9.31
2022-12-29T02:55:26.144Z,9.27
2022-12-29T02:56:27.541Z,9.24
2022-12-29T02:57:33.427Z,9.23
2022-12-29T02:58:38.926Z,9.22
2022-12-29T02:59:42.435Z,9.26
2022-12-29T03:01:09.746Z,9.24
2022-12-29T03:02:27.800Z,9.25
2022-12-29T03:03:41.766Z,9.26
2022-12-29T03:05:03.114Z,9.28
2022-12-29T03:06:06.591Z,9.26
2022-12-29T03:07:32.613Z,9.24
2022-12-29T03:08:54.221Z,9.24
2022-12-29T03:10:06.474Z,9.22
2022-12-29T03:11:10.116Z,9.23
2022-12-29T03:12:21.638Z,9.21
2022-12-29T03:13:40.518Z,9.24
2022-12-29T03:15:00.795Z,9.27
2022-12-29T03:16:07.376Z,9.26
2022-12-29T03:17:18.769Z,9.27
2022-12-29T03:18:26.407Z,9.25
2022-12-29T03:19:35.996Z,9.26
2022-12-29T03:20:44.732Z,9.27
2022-12-29T03:21:56.803Z,9.26
2022-12-29T03:23:04.611Z,9.27
2022-12-29T03:24:10.990Z,9.30
2022-12-29T03:25:12.610Z,9.30
2022-12-29T03:26:15.460Z,9.31
2022-12-29T03:27:22.844Z,9.30
2022-12-29T03:28:27.532Z,9.27
2022-12-29T03:29:32.209Z,9.25
2022-12-29T03:30:34.922Z,9.26
2022-12-29T03:31:39.223Z,9.23
2022-12-29T03:32:43.437Z,9.23
2022-12-29T03:33:55.652Z,9.25
2022-12-29T03:34:58.641Z,9.25
2022-12-29T03:36:05.376Z,9.24
2022-12-29T03:37:13.811Z,9.24
2022-12-29T03:38:18.371Z,9.24
2022-12-29T03:39:25.302Z,9.28
2022-12-29T03:40:28.361Z,9.28
2022-12-29T03:41:31.699Z,9.30
2022-12-29T03:42:36.278Z,9.30
2022-12-29T03:43:38.417Z,9.29
2022-12-29T03:44:44.338Z,9.29
2022-12-29T03:45:49.702Z,9.30
2022-12-29T03:46:51.584Z,9.32
2022-12-29T03:47:56.677Z,9.34
2022-12-29T03:48:58.727Z,9.35
2022-12-29T03:50:00.049Z,9.35
2022-12-29T03:51:01.764Z,9.35
2022-12-29T03:52:08.342Z,9.35
2022-12-29T03:53:16.999Z,9.41
2022-12-29T03:54:19.293Z,9.40
2022-12-29T03:55:21.815Z,9.44
2022-12-29T03:56:23.372Z,9.47
2022-12-29T03:57:25.706Z,9.45
2022-12-29T03:58:33.559Z,9.44
2022-12-29T03:59:43.848Z,9.41
2022-12-29T04:00:46.119Z,9.39
2022-12-29T04:01:47.804Z,9.37
2022-12-29T04:02:49.684Z,9.34
2022-12-29T04:03:55.724Z,9.33
2022-12-29T04:04:58.400Z,9.29
2022-12-29T04:06:02.094Z,9.34
2022-12-29T04:07:12.392Z,9.45
2022-12-29T04:08:15.188Z,9.52
2022-12-29T04:09:17.319Z,9.57
2022-12-29T04:10:21.648Z,9.59
2022-12-29T04:11:32.672Z,9.68
2022-12-29T04:12:36.773Z,9.69
2022-12-29T04:13:40.601Z,9.68
2022-12-29T04:14:42.797Z,9.71
2022-12-29T04:15:44.697Z,9.69
2022-12-29T04:16:46.550Z,9.68
2022-12-29T04:17:50.515Z,9.72
2022-12-29T04:18:53.498Z,9.74
2022-12-29T04:20:02.083Z,9.79
2022-12-29T04:21:07.533Z,9.80
2022-12-29T04:22:12.783Z,9.82
2022-12-29T04:23:14.875Z,9.84
2022-12-29T04:24:17.986Z,9.85
2022-12-29T04:25:20.365Z,9.87
2022-12-29T04:26:22.952Z,9.91
2022-12-29T04:27:31.651Z,9.95
2022-12-29T04:28:54.468Z,9.96
2022-12-29T04:30:07.863Z,10.02
2022-12-29T04:31:25.099Z,10.03
2022-12-29T04:32:26.665Z,10.06
2022-12-29T04:33:29.995Z,10.09
2022-12-29T04:34:32.702Z,10.13
2022-12-29T04:35:34.307Z,10.16
2022-12-29T04:36:38.107Z,10.14
2022-12-29T04:37:42.176Z,10.10
2022-12-29T04:38:44.111Z,10.09
2022-12-29T04:39:48.332Z,10.14
2022-12-29T04:40:50.552Z,10.12
2022-12-29T04:41:55.707Z,10.08
2022-12-29T04:42:57.473Z,10.01
2022-12-29T04:43:59.825Z,9.97
2022-12-29T04:45:25.289Z,9.89
2022-12-29T04:46:36.030Z,9.81
2022-12-29T04:47:44.614Z,9.77
2022-12-29T04:49:17.417Z,9.77
2022-12-29T04:50:31.026Z,9.78
2022-12-29T04:51:43.607Z,9.73
2022-12-29T04:52:47.120Z,9.78
2022-12-29T04:53:49.228Z,9.72
2022-12-29T04:54:50.712Z,9.68
2022-12-29T04:55:55.743Z,9.68
2022-12-29T04:56:57.417Z,9.65
2022-12-29T04:58:01.691Z,9.63
2022-12-29T04:59:08.146Z,9.65
2022-12-29T05:00:11.831Z,9.68
2022-12-29T05:01:21.146Z,9.77
2022-12-29T05:02:35.119Z,9.83
2022-12-29T05:04:55.513Z,9.78
2022-12-29T05:05:57.890Z,9.73
2022-12-29T05:07:04.060Z,9.76
2022-12-29T05:08:06.155Z,9.82
2022-12-29T05:09:10.537Z,9.80
2022-12-29T05:10:12.363Z,9.83
2022-12-29T05:11:14.852Z,9.82
2022-12-29T05:12:18.040Z,9.84
2022-12-29T05:13:37.175Z,9.92
2022-12-29T05:14:39.828Z,9.94
2022-12-29T05:15:48.297Z,10.02
2022-12-29T05:16:51.902Z,9.96
2022-12-29T05:17:53.876Z,9.97
2022-12-29T05:18:58.251Z,9.95
2022-12-29T05:20:00.554Z,9.92
2022-12-29T05:21:02.310Z,9.86
2022-12-29T05:22:03.965Z,9.90
2022-12-29T05:23:09.997Z,9.92
2022-12-29T05:24:12.586Z,9.99
2022-12-29T05:25:14.114Z,10.01
2022-12-29T05:26:36.460Z,10.02
2022-12-29T05:28:07.082Z,10.12
2022-12-29T05:29:19.476Z,10.16
2022-12-29T05:30:20.829Z,10.23
2022-12-29T05:31:23.182Z,10.24
2022-12-29T05:32:33.269Z,10.27
2022-12-29T05:33:36.504Z,10.27
2022-12-29T05:34:39.559Z,10.28
2022-12-29T05:35:42.549Z,10.37
2022-12-29T05:36:44.797Z,10.46
2022-12-29T05:37:47.224Z,10.45
2022-12-29T05:38:49.270Z,10.51
2022-12-29T05:39:51.077Z,10.56
2022-12-29T05:40:55.793Z,10.57
2022-12-29T05:42:17.919Z,10.55
2022-12-29T05:43:26.104Z,10.56
2022-12-29T05:44:50.681Z,10.63
2022-12-29T05:45:59.259Z,10.66
2022-12-29T05:47:11.869Z,10.65
2022-12-29T05:48:37.867Z,10.72
2022-12-29T05:50:02.321Z,10.78
2022-12-29T05:51:22.442Z,10.90
2022-12-29T05:52:27.983Z,11.00
2022-12-29T05:53:30.720Z,11.06
2022-12-29T05:54:32.861Z,11.07
2022-12-29T05:55:35.487Z,11.07
2022-12-29T05:56:36.869Z,11.06
2022-12-29T05:57:38.830Z,11.11
2022-12-29T05:58:48.713Z,11.18
2022-12-29T06:00:01.987Z,11.18
2022-12-29T06:01:04.934Z,11.15
2022-12-29T06:02:10.019Z,11.22
2022-12-29T06:03:13.351Z,11.17
2022-12-29T06:04:14.771Z,11.11
2022-12-29T06:05:17.239Z,11.09
2022-12-29T06:06:18.737Z,11.12
2022-12-29T06:07:21.036Z,11.15
2022-12-29T06:08:23.200Z,11.11
2022-12-29T06:09:24.630Z,11.10
2022-12-29T06:10:28.871Z,11.13
2022-12-29T06:11:37.286Z,11.10
2022-12-29T06:12:40.449Z,11.08
2022-12-29T06:13:46.046Z,11.08
2022-12-29T06:14:47.574Z,11.14
2022-12-29T06:15:50.899Z,11.12
2022-12-29T06:16:53.817Z,11.14
2022-12-29T06:17:58.026Z,11.15
2022-12-29T06:18:59.595Z,11.10
2022-12-29T06:20:00.804Z,11.11
2022-12-29T06:21:03.142Z,11.11
2022-12-29T06:22:08.064Z,11.10
2022-12-29T06:23:15.623Z,11.05
2022-12-29T06:24:18.047Z,11.05
2022-12-29T06:25:20.382Z,11.01
2022-12-29T06:26:21.931Z,11.04
2022-12-29T06:27:24.898Z,11.04
2022-12-29T06:28:27.605Z,11.13
2022-12-29T06:29:29.915Z,11.12
2022-12-29T06:30:33.500Z,11.09
2022-12-29T06:31:35.958Z,11.04
2022-12-29T06:32:40.439Z,11.02
2022-12-29T06:33:48.268Z,11.06
2022-12-29T06:34:51.139Z,11.05
2022-12-29T06:35:56.076Z,11.07
2022-12-29T06:36:58.964Z,11.03
2022-12-29T06:38:01.866Z,11.06
2022-12-29T06:39:04.294Z,11.06
2022-12-29T06:40:07.291Z,11.01
2022-12-29T06:41:32.187Z,10.93
2022-12-29T06:43:12.517Z,10.87
2022-12-29T06:44:30.897Z,10.84
2022-12-29T06:45:36.062Z,10.82
2022-12-29T06:46:37.289Z,10.92
2022-12-29T06:47:41.470Z,11.00
2022-12-29T06:48:42.724Z,10.96
2022-12-29T06:49:44.123Z,10.97
2022-12-29T06:50:45.489Z,10.94
2022-12-29T06:52:00.322Z,10.90
2022-12-29T06:53:02.443Z,10.92
2022-12-29T06:54:03.768Z,10.91
2022-12-29T06:55:06.588Z,10.92
2022-12-29T06:56:10.348Z,10.87
2022-12-29T06:57:11.604Z,10.83
2022-12-29T06:58:12.886Z,10.80
2022-12-29T06:59:14.709Z,10.75
2022-12-29T07:00:22.326Z,10.71
2022-12-29T07:01:28.438Z,10.72
2022-12-29T07:02:29.836Z,10.76
2022-12-29T07:03:31.228Z,10.79
2022-12-29T07:04:34.489Z,10.82
2022-12-29T07:05:36.625Z,10.79
2022-12-29T07:06:43.179Z,10.87
2022-12-29T07:07:46.877Z,10.81
2022-12-29T07:08:48.739Z,10.83
2022-12-29T07:09:50.748Z,10.83
2022-12-29T07:10:53.252Z,10.83
2022-12-29T07:11:54.982Z,10.88
2022-12-29T07:12:56.288Z,10.96
2022-12-29T07:13:57.499Z,10.95
2022-12-29T07:15:01.161Z,10.95
2022-12-29T07:16:06.191Z,10.90
2022-12-29T07:17:09.065Z,10.84
2022-12-29T07:18:10.695Z,10.82
2022-12-29T07:19:12.036Z,10.79
2022-12-29T07:20:13.557Z,10.78
2022-12-29T07:21:15.131Z,10.78
2022-12-29T07:22:16.408Z,10.76
2022-12-29T07:23:18.518Z,10.83
2022-12-29T07:24:19.791Z,10.85
2022-12-29T07:25:23.770Z,10.86
2022-12-29T07:26:26.891Z,10.92
2022-12-29T07:27:30.467Z,10.91
2022-12-29T07:28:36.973Z,10.89
2022-12-29T07:29:38.513Z,10.94
2022-12-29T07:30:40.276Z,10.91
2022-12-29T07:31:47.006Z,10.90
2022-12-29T07:32:55.821Z,10.89
2022-12-29T07:33:58.056Z,10.89
2022-12-29T07:35:00.499Z,10.85
2022-12-29T07:36:01.867Z,10.87
2022-12-29T07:37:05.687Z,10.87
2022-12-29T07:38:06.924Z,10.89
2022-12-29T07:39:08.559Z,10.91
2022-12-29T07:40:10.477Z,10.89
2022-12-29T07:41:12.092Z,10.87
2022-12-29T07:42:13.443Z,10.88
2022-12-29T07:43:19.442Z,10.90
2022-12-29T07:44:42.218Z,10.97
2022-12-29T07:46:02.376Z,10.99
2022-12-29T07:47:03.876Z,11.05
2022-12-29T07:48:05.883Z,11.05
2022-12-29T07:49:09.954Z,11.12
2022-12-29T07:50:11.320Z,11.07
2022-12-29T07:51:12.660Z,11.04
2022-12-29T07:52:13.995Z,11.05
2022-12-29T07:53:15.540Z,11.06
2022-12-29T07:54:20.083Z,11.09
2022-12-29T07:55:21.387Z,11.04
2022-12-29T07:56:22.665Z,11.03
2022-12-29T07:57:31.319Z,11.12
2022-12-29T07:58:33.187Z,11.04
2022-12-29T07:59:39.326Z,10.96
2022-12-29T08:00:40.825Z,10.93
2022-12-29T08:01:42.263Z,10.98
2022-12-29T08:02:43.692Z,11.00
2022-12-29T08:03:52.597Z,10.96
2022-12-29T08:04:56.787Z,10.98
2022-12-29T08:05:58.116Z,10.92
2022-12-29T08:06:59.370Z,11.01
2022-12-29T08:08:00.626Z,11.01
2022-12-29T08:09:11.054Z,10.98
2022-12-29T08:10:14.496Z,10.99
2022-12-29T08:11:15.777Z,10.95
2022-12-29T08:12:17.055Z,10.94
2022-12-29T08:13:18.404Z,10.91
2022-12-29T08:14:19.747Z,10.92
2022-12-29T08:15:22.557Z,10.96
2022-12-29T08:16:25.746Z,10.95
2022-12-29T08:17:27.040Z,11.02
2022-12-29T08:18:28.325Z,11.02
2022-12-29T08:19:29.540Z,11.00
2022-12-29T08:20:30.745Z,10.98
2022-12-29T08:21:33.524Z,11.03
2022-12-29T08:22:35.141Z,11.00
2022-12-29T08:23:36.502Z,11.01
2022-12-29T08:24:37.764Z,10.99
2022-12-29T08:25:38.973Z,10.97
2022-12-29T08:26:40.303Z,10.95
2022-12-29T08:27:41.630Z,10.92
2022-12-29T08:28:43.002Z,10.95
2022-12-29T08:29:44.595Z,11.02
2022-12-29T08:30:45.955Z,10.99
2022-12-29T08:31:47.306Z,10.99
2022-12-29T08:32:48.608Z,11.03
2022-12-29T08:33:50.007Z,11.04
2022-12-29T08:34:51.245Z,11.05
2022-12-29T08:35:52.461Z,11.08
2022-12-29T08:36:53.700Z,11.13
2022-12-29T08:37:54.902Z,11.12
2022-12-29T08:38:56.176Z,11.09
2022-12-29T08:39:57.486Z,11.08
2022-12-29T08:40:59.474Z,11.08
2022-12-29T08:42:00.748Z,11.04
2022-12-29T08:43:02.006Z,11.01
2022-12-29T08:44:03.223Z,11.04
2022-12-29T08:45:04.617Z,11.08
2022-12-29T08:46:05.892Z,11.08
2022-12-29T08:47:07.177Z,11.16
2022-12-29T08:48:08.636Z,11.12
2022-12-29T08:49:09.923Z,11.13
2022-12-29T08:50:11.139Z,11.11
2022-12-29T08:51:13.686Z,11.10
2022-12-29T08:52:15.019Z,11.11
2022-12-29T08:53:16.330Z,11.10
2022-12-29T08:54:26.012Z,11.10
2022-12-29T08:55:27.700Z,11.11
2022-12-29T08:56:29.311Z,11.09
2022-12-29T08:57:35.494Z,11.12
2022-12-29T08:58:41.478Z,11.12
2022-12-29T08:59:42.745Z,11.14
2022-12-29T09:00:45.983Z,11.12
2022-12-29T09:01:47.387Z,11.14
2022-12-29T09:02:48.844Z,11.13
2022-12-29T09:05:11.871Z,11.16
2022-12-29T09:06:13.753Z,11.19
2022-12-29T09:07:15.009Z,11.20
2022-12-29T09:08:20.885Z,11.21
2022-12-29T09:09:25.225Z,11.32
2022-12-29T09:10:26.528Z,11.35
2022-12-29T09:11:27.778Z,11.34
2022-12-29T09:12:34.454Z,11.40
2022-12-29T09:13:37.555Z,11.44
2022-12-29T09:14:38.868Z,11.46
2022-12-29T09:15:40.426Z,11.51
2022-12-29T09:16:42.490Z,11.52
2022-12-29T09:17:43.784Z,11.56
2022-12-29T09:18:45.299Z,11.57
2022-12-29T09:19:46.572Z,11.62
2022-12-29T09:20:47.837Z,11.63
2022-12-29T09:21:49.054Z,11.62
2022-12-29T09:22:50.382Z,11.61
2022-12-29T09:23:51.625Z,11.66
2022-12-29T09:24:52.985Z,11.70
2022-12-29T09:25:54.791Z,11.73
2022-12-29T09:26:56.072Z,11.72
2022-12-29T09:27:57.307Z,11.71
2022-12-29T09:28:58.602Z,11.71
2022-12-29T09:29:59.890Z,11.74
2022-12-29T09:31:03.721Z,11.78
2022-12-29T09:32:07.804Z,11.82
2022-12-29T09:33:09.593Z,11.84
2022-12-29T09:34:10.872Z,11.89
2022-12-29T09:35:12.477Z,11.89
2022-12-29T09:36:13.714Z,11.87
2022-12-29T09:37:15.018Z,11.88
2022-12-29T09:38:16.352Z,11.90
2022-12-29T09:39:17.653Z,11.89
2022-12-29T09:40:24.898Z,11.88
2022-12-29T09:41:30.607Z,11.91
2022-12-29T09:42:38.064Z,11.94
2022-12-29T09:43:47.945Z,11.98
2022-12-29T09:45:07.881Z,12.02
2022-12-29T09:46:12.366Z,12.07
2022-12-29T09:47:15.189Z,12.06
2022-12-29T09:48:23.912Z,12.09
2022-12-29T09:49:25.149Z,12.10
2022-12-29T09:50:26.455Z,12.13
2022-12-29T09:51:28.424Z,12.17
2022-12-29T09:52:32.424Z,12.27
2022-12-29T09:53:41.960Z,12.31
2022-12-29T09:55:00.032Z,12.36
2022-12-29T09:56:03.770Z,12.42
2022-12-29T09:57:05.911Z,12.49
2022-12-29T09:58:14.367Z,12.61
2022-12-29T09:59:18.335Z,12.72
2022-12-29T10:00:40.773Z,12.78
2022-12-29T10:01:47.791Z,12.78
2022-12-29T10:03:12.207Z,12.83
2022-12-29T10:04:13.633Z,12.85
2022-12-29T10:05:18.066Z,12.93
2022-12-29T10:06:24.351Z,12.85
2022-12-29T10:07:41.593Z,12.90
2022-12-29T10:08:45.627Z,12.92
2022-12-29T10:10:12.885Z,12.90
2022-12-29T10:11:25.288Z,12.87
2022-12-29T10:12:27.334Z,12.84
2022-12-29T10:13:37.354Z,12.84
2022-12-29T10:14:57.552Z,12.91
2022-12-29T10:16:03.541Z,12.92
2022-12-29T10:17:23.177Z,12.92
2022-12-29T10:18:39.696Z,12.88
2022-12-29T10:19:53.994Z,12.93
2022-12-29T10:21:09.753Z,12.93
2022-12-29T10:22:20.075Z,12.91
2022-12-29T10:23:25.647Z,12.91
2022-12-29T10:24:29.848Z,12.88
2022-12-29T10:25:35.393Z,12.88
2022-12-29T10:26:44.185Z,12.86
2022-12-29T10:27:48.017Z,12.87
2022-12-29T10:28:49.252Z,12.88
2022-12-29T10:29:56.742Z,12.93
2022-12-29T10:31:05.024Z,12.94
2022-12-29T10:32:32.830Z,12.98
2022-12-29T10:33:41.458Z,13.00
2022-12-29T10:34:48.366Z,13.00
2022-12-29T10:35:50.041Z,13.07
2022-12-29T10:36:58.018Z,13.14
2022-12-29T10:38:02.736Z,13.16
2022-12-29T10:39:03.932Z,13.19
2022-12-29T10:40:14.731Z,13.21
2022-12-29T10:41:21.622Z,13.23
2022-12-29T10:42:42.997Z,13.21
2022-12-29T10:43:46.717Z,13.24
2022-12-29T10:44:48.092Z,13.28
2022-12-29T10:45:50.091Z,13.33
2022-12-29T10:46:56.348Z,13.31
2022-12-29T10:48:18.741Z,13.28
2022-12-29T10:49:22.300Z,13.24
2022-12-29T10:50:25.457Z,13.23
2022-12-29T10:51:47.089Z,13.22
2022-12-29T10:52:49.657Z,13.27
2022-12-29T10:54:04.564Z,13.22
2022-12-29T10:55:09.288Z,13.21
2022-12-29T10:56:15.904Z,13.23
2022-12-29T10:57:36.966Z,13.21
2022-12-29T10:58:46.743Z,13.22
2022-12-29T10:59:56.232Z,13.25
2022-12-29T11:01:02.962Z,13.18
2022-12-29T11:02:20.754Z,13.19
2022-12-29T11:03:27.831Z,13.24
2022-12-29T11:04:29.138Z,13.20
2022-12-29T11:05:39.290Z,13.17
2022-12-29T11:06:40.650Z,13.18
2022-12-29T11:07:41.933Z,13.10
2022-12-29T11:08:50.667Z,13.08
2022-12-29T11:09:52.593Z,12.97
2022-12-29T11:11:00.796Z,12.94
2022-12-29T11:12:18.405Z,12.97
2022-12-29T11:13:25.348Z,12.96
2022-12-29T11:14:29.062Z,12.94
2022-12-29T11:15:40.514Z,13.01
2022-12-29T11:16:42.010Z,13.08
2022-12-29T11:17:44.636Z,13.13
2022-12-29T11:18:47.196Z,13.14
2022-12-29T11:19:48.733Z,13.16
2022-12-29T11:20:51.574Z,13.19
2022-12-29T11:21:55.693Z,13.22
2022-12-29T11:22:58.253Z,13.29
2022-12-29T11:24:04.257Z,13.37
2022-12-29T11:25:13.189Z,13.39
2022-12-29T11:26:17.381Z,13.40
2022-12-29T11:27:23.485Z,13.39
2022-12-29T11:28:24.701Z,13.45
2022-12-29T11:29:25.956Z,13.53
2022-12-29T11:30:29.425Z,13.61
2022-12-29T11:31:30.869Z,13.58
2022-12-29T11:32:32.431Z,13.58
2022-12-29T11:33:35.307Z,13.60
2022-12-29T11:34:37.083Z,13.64
2022-12-29T11:35:42.942Z,13.57
2022-12-29T11:36:44.247Z,13.62
2022-12-29T11:37:45.548Z,13.57
2022-12-29T11:38:48.892Z,13.52
2022-12-29T11:39:55.792Z,13.49
2022-12-29T11:41:04.435Z,13.47
2022-12-29T11:42:07.016Z,13.47
2022-12-29T11:43:17.338Z,13.41
2022-12-29T11:44:18.733Z,13.38
2022-12-29T11:45:23.944Z,13.35
2022-12-29T11:46:30.546Z,13.33
2022-12-29T11:47:33.702Z,13.36
2022-12-29T11:48:41.939Z,13.40
2022-12-29T11:49:50.208Z,13.36
2022-12-29T11:50:54.581Z,13.39
2022-12-29T11:51:58.731Z,13.41
2022-12-29T11:53:04.543Z,13.48
2022-12-29T11:54:06.224Z,13.45
2022-12-29T11:55:17.309Z,13.44
2022-12-29T11:56:20.241Z,13.45
2022-12-29T11:57:22.749Z,13.47
2022-12-29T11:58:34.082Z,13.51
2022-12-29T11:59:37.260Z,13.52
2022-12-29T12:00:39.437Z,13.48
2022-12-29T12:01:40.956Z,13.46
2022-12-29T12:02:49.035Z,13.46
2022-12-29T12:04:09.042Z,13.49
2022-12-29T12:05:22.760Z,13.47
2022-12-29T12:06:24.202Z,13.43
2022-12-29T12:07:33.368Z,13.43
2022-12-29T12:08:37.977Z,13.36
2022-12-29T12:09:43.933Z,13.32
2022-12-29T12:10:48.907Z,13.36
2022-12-29T12:11:54.307Z,13.28
2022-12-29T12:13:04.896Z,13.27
2022-12-29T12:14:12.741Z,13.29
2022-12-29T12:15:46.721Z,13.16
2022-12-29T12:16:58.775Z,13.15
2022-12-29T12:18:06.472Z,13.12
2022-12-29T12:19:10.831Z,13.14
2022-12-29T12:20:12.219Z,13.17
2022-12-29T12:21:21.664Z,13.20
2022-12-29T12:22:28.692Z,13.20
2022-12-29T12:23:37.474Z,13.16
2022-12-29T12:24:43.217Z,13.15
2022-12-29T12:25:49.799Z,13.12
2022-12-29T12:26:56.898Z,13.08
2022-12-29T12:28:01.060Z,13.05
2022-12-29T12:29:23.543Z,12.99
2022-12-29T12:30:25.919Z,12.96
2022-12-29T12:31:48.691Z,12.95
2022-12-29T12:32:49.971Z,12.98
2022-12-29T12:33:54.484Z,12.98
2022-12-29T12:34:55.757Z,12.99
2022-12-29T12:36:06.078Z,12.99
2022-12-29T12:37:23.802Z,13.00
2022-12-29T12:38:34.989Z,13.06
2022-12-29T12:39:42.436Z,13.07
2022-12-29T12:41:01.037Z,13.12
2022-12-29T12:42:11.383Z,13.10
2022-12-29T12:43:31.166Z,13.09
2022-12-29T12:44:40.977Z,13.07
2022-12-29T12:46:01.118Z,13.07
2022-12-29T12:47:19.538Z,13.06
2022-12-29T12:48:39.514Z,13.04
2022-12-29T12:49:40.807Z,13.08
2022-12-29T12:50:47.365Z,13.10
2022-12-29T12:52:11.555Z,13.11
2022-12-29T12:55:16.254Z,13.15
2022-12-29T12:56:28.274Z,13.16
2022-12-29T12:57:48.080Z,13.17
2022-12-29T12:59:19.044Z,13.20
2022-12-29T13:00:20.771Z,13.23
2022-12-29T13:01:39.276Z,13.26
2022-12-29T13:02:40.936Z,13.26
2022-12-29T13:04:01.482Z,13.28
2022-12-29T13:05:14.632Z,13.29
2022-12-29T13:06:25.069Z,13.32
2022-12-29T13:07:34.599Z,13.30
2022-12-29T13:08:38.590Z,13.30
2022-12-29T13:09:42.848Z,13.33
2022-12-29T13:10:48.362Z,13.28
2022-12-29T13:11:55.405Z,13.30
2022-12-29T13:13:06.945Z,13.25
2022-12-29T13:14:17.980Z,13.24
2022-12-29T13:15:25.603Z,13.23
2022-12-29T13:16:26.931Z,13.21
2022-12-29T13:17:43.378Z,13.22
2022-12-29T13:18:44.683Z,13.29
2022-12-29T13:19:45.876Z,13.27
2022-12-29T13:20:47.061Z,13.28
2022-12-29T13:22:01.960Z,13.25
2022-12-29T13:23:07.143Z,13.27
2022-12-29T13:24:26.055Z,13.26
2022-12-29T13:25:31.719Z,13.19
2022-12-29T13:26:40.355Z,13.17
2022-12-29T13:27:47.376Z,13.17
2022-12-29T13:28:58.668Z,13.14
2022-12-29T13:30:08.792Z,13.14
2022-12-29T13:31:10.291Z,13.16
2022-12-29T13:32:27.119Z,13.17
2022-12-29T13:33:46.987Z,13.13
2022-12-29T13:34:54.091Z,13.08
2022-12-29T13:36:04.758Z,13.07
2022-12-29T13:37:11.011Z,13.03
2022-12-29T13:38:16.663Z,13.07
2022-12-29T13:39:26.161Z,13.03
2022-12-29T13:40:29.477Z,12.98
2022-12-29T13:41:36.360Z,12.96
2022-12-29T13:42:38.083Z,12.93
2022-12-29T13:43:42.645Z,12.90
2022-12-29T13:44:47.077Z,12.87
2022-12-29T13:45:53.213Z,12.87
2022-12-29T13:46:55.678Z,12.86
2022-12-29T13:48:15.901Z,12.83
2022-12-29T13:49:21.687Z,12.82
2022-12-29T13:50:25.666Z,12.79
2022-12-29T13:51:28.208Z,12.78
2022-12-29T13:52:59.475Z,12.78
2022-12-29T13:54:06.791Z,12.78
2022-12-29T13:55:27.002Z,12.79
2022-12-29T13:56:40.620Z,12.87
2022-12-29T13:57:48.271Z,12.79
2022-12-29T13:58:58.805Z,12.73
2022-12-29T14:00:11.980Z,12.70
2022-12-29T14:01:51.649Z,12.69
2022-12-29T14:03:11.956Z,12.67
2022-12-29T14:04:14.625Z,12.70
2022-12-29T14:05:18.656Z,12.67
2022-12-29T14:06:22.891Z,12.65
2022-12-29T14:07:24.288Z,12.63
2022-12-29T14:08:25.549Z,12.64
2022-12-29T14:09:42.235Z,12.62
2022-12-29T14:10:48.087Z,12.60
2022-12-29T14:11:49.328Z,12.58
2022-12-29T14:12:50.602Z,12.55
2022-12-29T14:13:52.359Z,12.52
2022-12-29T14:14:53.837Z,12.60
2022-12-29T14:15:56.242Z,12.53
2022-12-29T14:17:15.176Z,12.49
2022-12-29T14:18:16.781Z,12.51
2022-12-29T14:19:20.364Z,12.52
2022-12-29T14:20:23.619Z,12.49
2022-12-29T14:21:26.567Z,12.52
2022-12-29T14:22:32.905Z,12.48
2022-12-29T14:23:42.075Z,12.48
2022-12-29T14:24:44.721Z,12.51
2022-12-29T14:26:04.481Z,12.46
2022-12-29T14:27:08.414Z,12.44